Time;durP1;ratioP1;P1;durP2;ratioP2;P2;SDS_P1;SDS_P2;PMS_P1;PMS_P2;Temp;Humidity;BMP_temperature;BMP_pressure;BME280_temperature;BME280_humidity;BME280_pressure;Samples;Min_cycle;Max_cycle;Signal;HPM_P1;HPM_P2
2021/06/02 00:02:18;;;;;;;3.38;2.78;;;19.20;63.10;;;;;;6311100;22;20024;-75
2021/06/02 00:04:51;;;;;;;3.80;2.85;;;19.20;63.20;;;;;;6322152;22;20007;-75
2021/06/02 00:07:25;;;;;;;2.78;2.47;;;19.20;62.70;;;;;;6310960;22;20116;-76
2021/06/02 00:09:53;;;;;;;3.72;2.67;;;19.20;62.80;;;;;;6311676;22;20015;-75
2021/06/02 00:12:21;;;;;;;4.35;2.88;;;19.20;63.00;;;;;;6311386;22;20011;-74
2021/06/02 00:14:47;;;;;;;3.08;2.60;;;19.20;63.00;;;;;;6321431;22;20323;-74
2021/06/02 00:17:13;;;;;;;3.85;2.58;;;19.20;62.70;;;;;;6311028;22;20082;-74
2021/06/02 00:19:40;;;;;;;3.75;2.50;;;19.20;62.40;;;;;;6321295;22;20421;-75
2021/06/02 00:22:07;;;;;;;3.30;2.55;;;19.20;62.10;;;;;;6322223;22;20018;-75
2021/06/02 00:24:34;;;;;;;2.28;2.08;;;19.20;62.00;;;;;;6311407;22;20333;-75
2021/06/02 00:27:04;;;;;;;3.15;2.47;;;19.10;62.00;;;;;;6321655;22;20011;-75
2021/06/02 00:29:31;;;;;;;3.10;2.65;;;19.10;62.00;;;;;;6322076;22;20019;-74
2021/06/02 00:31:58;;;;;;;2.75;2.40;;;19.10;61.90;;;;;;6321903;22;20015;-74
2021/06/02 00:34:25;;;;;;;3.10;2.42;;;19.10;61.70;;;;;;6322156;22;20007;-74
2021/06/02 00:36:51;;;;;;;2.28;1.92;;;19.10;61.70;;;;;;6321836;22;20007;-75
2021/06/02 00:39:17;;;;;;;2.95;2.30;;;19.10;61.80;;;;;;6321906;22;20007;-75
2021/06/02 00:41:45;;;;;;;2.53;1.92;;;19.10;61.80;;;;;;6321509;22;20014;-74
2021/06/02 00:44:16;;;;;;;3.58;2.30;;;19.10;61.60;;;;;;6321314;22;20011;-74
2021/06/02 00:46:43;;;;;;;2.28;1.90;;;19.00;61.30;;;;;;6310957;22;20084;-75
2021/06/02 00:49:14;;;;;;;2.05;1.70;;;19.10;61.10;;;;;;6284191;22;20015;-75
2021/06/02 00:51:40;;;;;;;2.55;1.90;;;19.00;61.00;;;;;;6310695;22;20082;-75
2021/06/02 00:54:06;;;;;;;2.45;2.03;;;19.00;61.40;;;;;;6322102;22;20007;-75
2021/06/02 00:56:42;;;;;;;4.18;2.20;;;19.00;61.30;;;;;;6321280;22;20003;-75
2021/06/02 00:59:09;;;;;;;1.85;1.60;;;19.00;60.70;;;;;;6322081;22;20011;-74
2021/06/02 01:01:36;;;;;;;1.88;1.50;;;18.90;60.80;;;;;;6321958;22;20011;-75
2021/06/02 01:04:03;;;;;;;1.65;1.55;;;18.90;60.80;;;;;;6294172;22;20349;-75
2021/06/02 01:06:34;;;;;;;2.60;1.90;;;18.90;60.50;;;;;;6311430;22;20035;-75
2021/06/02 01:09:03;;;;;;;3.25;1.75;;;18.90;61.10;;;;;;6321042;22;20023;-75
2021/06/02 01:11:31;;;;;;;2.88;1.67;;;18.90;60.90;;;;;;6321865;22;20014;-74
2021/06/02 01:13:58;;;;;;;1.83;1.50;;;18.90;61.00;;;;;;6311341;22;20082;-74
2021/06/02 01:16:34;;;;;;;2.78;1.70;;;18.90;60.90;;;;;;6321517;22;20042;-75
2021/06/02 01:19:01;;;;;;;2.65;1.70;;;18.90;60.70;;;;;;6321864;22;20018;-74
2021/06/02 01:21:30;;;;;;;2.47;1.55;;;18.90;60.50;;;;;;6310802;22;20015;-75
2021/06/02 01:23:59;;;;;;;2.50;1.58;;;18.80;60.50;;;;;;6321154;22;20072;-75
2021/06/02 01:26:27;;;;;;;1.90;1.70;;;18.80;60.50;;;;;;6321764;22;20011;-75
2021/06/02 01:28:54;;;;;;;2.00;1.70;;;18.80;60.70;;;;;;6321081;22;20090;-75
2021/06/02 01:31:42;;;;;;;2.20;1.73;;;18.80;60.50;;;;;;6320672;22;20333;-75
2021/06/02 01:34:46;;;;;;;1.83;1.58;;;18.80;60.10;;;;;;6291262;22;20033;-74
2021/06/02 01:37:15;;;;;;;3.03;1.88;;;18.80;60.60;;;;;;6311452;22;20025;-75
2021/06/02 01:39:49;;;;;;;1.95;1.40;;;18.80;60.90;;;;;;6320971;22;20424;-75
2021/06/02 01:42:40;;;;;;;1.83;1.60;;;18.80;60.90;;;;;;6310738;22;20015;-75
2021/06/02 01:45:41;;;;;;;2.63;1.58;;;18.80;60.10;;;;;;6320760;22;20011;-75
2021/06/02 01:48:27;;;;;;;2.47;1.50;;;18.70;60.60;;;;;;6321241;22;20007;-74
2021/06/02 01:51:30;;;;;;;2.40;1.40;;;18.80;61.20;;;;;;6314399;22;20021;-76
2021/06/02 01:54:25;;;;;;;3.40;1.85;;;18.70;61.20;;;;;;6310668;22;20034;-75
2021/06/02 01:57:14;;;;;;;1.90;1.60;;;18.70;61.30;;;;;;6174670;22;20013;-74
2021/06/02 02:00:01;;;;;;;1.67;1.58;;;18.70;61.50;;;;;;6320738;22;20086;-75
2021/06/02 02:02:36;;;;;;;3.45;1.50;;;18.70;60.80;;;;;;6320760;22;20018;-75
2021/06/02 02:05:19;;;;;;;1.65;1.52;;;18.70;61.00;;;;;;6320970;22;20040;-74
2021/06/02 02:07:48;;;;;;;2.35;1.63;;;18.70;60.90;;;;;;6320631;22;20042;-75
2021/06/02 02:10:37;;;;;;;2.13;1.65;;;18.70;61.20;;;;;;6309666;22;20093;-75
2021/06/02 02:13:36;;;;;;;2.20;1.58;;;18.60;61.20;;;;;;6321284;22;20011;-75
2021/06/02 02:16:37;;;;;;;1.80;1.25;;;18.60;61.10;;;;;;6309946;22;20011;-74
2021/06/02 02:19:24;;;;;;;3.72;1.75;;;18.60;61.20;;;;;;6320470;22;20011;-74
2021/06/02 02:22:28;;;;;;;1.83;1.65;;;18.60;61.30;;;;;;6320741;22;20086;-75
2021/06/02 02:25:06;;;;;;;2.00;1.50;;;18.60;61.40;;;;;;6252521;22;20091;-74
2021/06/02 02:28:13;;;;;;;2.60;1.40;;;18.60;61.50;;;;;;6320443;22;20007;-75
2021/06/02 02:30:56;;;;;;;1.98;1.58;;;18.50;60.70;;;;;;6290786;22;20108;-74
2021/06/02 02:33:47;;;;;;;2.20;1.70;;;18.50;61.40;;;;;;6320849;22;20419;-74
2021/06/02 02:36:32;;;;;;;2.25;1.33;;;18.50;61.50;;;;;;6320615;22;20384;-75
2021/06/02 02:39:09;;;;;;;2.42;2.10;;;18.50;61.70;;;;;;6320015;22;20471;-74
2021/06/02 02:42:02;;;;;;;2.30;1.70;;;18.50;61.60;;;;;;6320043;22;20014;-74
2021/06/02 02:44:31;;;;;;;1.90;1.40;;;18.50;61.30;;;;;;6320687;22;20007;-75
2021/06/02 02:47:12;;;;;;;1.90;1.63;;;18.50;61.50;;;;;;6309538;22;20275;-74
2021/06/02 02:50:04;;;;;;;1.90;1.58;;;18.40;61.80;;;;;;6318466;22;20011;-75
2021/06/02 02:52:40;;;;;;;2.35;1.77;;;18.50;61.70;;;;;;6310886;22;20026;-74
2021/06/02 02:55:21;;;;;;;2.50;1.90;;;18.40;61.70;;;;;;6320487;22;20105;-75
2021/06/02 02:58:04;;;;;;;1.95;1.58;;;18.40;61.60;;;;;;6310416;22;20307;-75
2021/06/02 03:00:36;;;;;;;;;;;18.40;61.50;;;;;;6283935;22;20470;-75
2021/06/02 03:03:23;;;;;;;2.13;1.92;;;18.30;61.00;;;;;;6304007;22;19921;-75
2021/06/02 03:06:23;;;;;;;2.30;1.85;;;18.30;61.20;;;;;;6320506;22;20007;-75
2021/06/02 03:09:01;;;;;;;2.42;1.92;;;18.30;61.80;;;;;;6320428;22;20015;-75
2021/06/02 03:12:01;;;;;;;2.28;2.08;;;18.30;62.10;;;;;;6320124;22;20007;-74
2021/06/02 03:14:40;;;;;;;4.07;2.17;;;18.30;61.50;;;;;;6320590;22;20019;-74
2021/06/02 03:17:22;;;;;;;2.70;2.22;;;18.30;62.20;;;;;;6319966;22;20011;-74
2021/06/02 03:20:05;;;;;;;2.13;1.92;;;18.30;62.30;;;;;;6320055;22;20007;-74
2021/06/02 03:22:59;;;;;;;2.45;2.25;;;18.30;62.20;;;;;;6320032;22;20408;-74
2021/06/02 03:25:34;;;;;;;3.25;1.70;;;18.30;62.40;;;;;;6320698;22;20011;-74
2021/06/02 03:28:38;;;;;;;3.03;1.85;;;18.20;62.40;;;;;;6320550;22;20011;-75
2021/06/02 03:31:28;;;;;;;1.88;1.65;;;18.20;62.30;;;;;;6232173;22;20041;-75
2021/06/02 03:34:21;;;;;;;5.40;2.20;;;18.20;62.60;;;;;;6322849;22;20011;-74
2021/06/02 03:37:09;;;;;;;3.17;2.50;;;18.20;62.50;;;;;;6322767;22;20015;-75
2021/06/02 03:39:50;;;;;;;2.92;1.77;;;18.20;63.30;;;;;;6322115;22;20007;-75
2021/06/02 03:42:24;;;;;;;2.90;2.08;;;18.20;62.50;;;;;;6323173;22;20086;-75
2021/06/02 03:45:47;;;;;;;2.47;1.98;;;18.20;62.90;;;;;;6322134;22;20018;-75
2021/06/02 03:48:48;;;;;;;2.67;2.25;;;18.10;62.60;;;;;;6158122;23;20017;-75
2021/06/02 03:51:49;;;;;;;2.60;2.40;;;18.10;63.10;;;;;;6080926;23;20373;-75
2021/06/02 03:54:34;;;;;;;2.70;2.50;;;18.20;62.80;;;;;;6299394;22;20408;-74
2021/06/02 03:57:24;;;;;;;3.05;2.10;;;18.10;63.70;;;;;;6322170;22;20090;-75
2021/06/02 04:00:17;;;;;;;2.88;2.58;;;18.20;63.10;;;;;;6321609;22;20064;-75
2021/06/02 04:02:52;;;;;;;4.05;2.67;;;18.10;63.10;;;;;;6312232;22;20015;-75
2021/06/02 04:05:21;;;;;;;3.38;2.90;;;18.10;63.20;;;;;;6294682;22;20308;-75
2021/06/02 04:08:05;;;;;;;3.47;3.03;;;18.10;63.20;;;;;;6322555;22;20022;-74
2021/06/02 04:10:57;;;;;;;3.97;2.70;;;18.10;63.20;;;;;;6322406;22;20015;-75
2021/06/02 04:13:42;;;;;;;3.20;2.90;;;18.10;63.20;;;;;;6322052;22;20011;-74
2021/06/02 04:16:13;;;;;;;3.95;2.90;;;18.20;63.20;;;;;;6321629;22;20007;-77
2021/06/02 04:18:41;;;;;;;4.63;3.85;;;18.10;63.60;;;;;;6321425;22;20011;-74
2021/06/02 04:21:10;;;;;;;4.15;3.13;;;18.20;63.70;;;;;;6322422;22;20034;-74
2021/06/02 04:23:38;;;;;;;5.40;2.90;;;18.20;63.80;;;;;;6321695;22;20022;-74
2021/06/02 04:26:07;;;;;;;6.28;3.33;;;18.20;63.90;;;;;;6322352;22;20216;-74
2021/06/02 04:28:37;;;;;;;12.38;3.28;;;18.20;64.10;;;;;;6316061;22;20488;-74
2021/06/02 04:31:10;;;;;;;5.07;2.97;;;18.20;64.30;;;;;;6321622;22;20034;-73
2021/06/02 04:33:38;;;;;;;5.82;2.58;;;18.30;64.30;;;;;;6321888;22;20011;-74
2021/06/02 04:36:11;;;;;;;5.00;2.85;;;18.30;64.20;;;;;;6321472;22;20136;-74
2021/06/02 04:38:37;;;;;;;7.40;3.17;;;18.30;64.30;;;;;;6322241;22;20010;-73
2021/06/02 04:41:08;;;;;;;12.68;3.47;;;18.30;64.30;;;;;;6321105;22;20011;-74
2021/06/02 04:43:38;;;;;;;7.05;3.10;;;18.30;64.50;;;;;;6310405;22;20078;-77
2021/06/02 04:46:11;;;;;;;11.57;4.72;;;18.30;64.60;;;;;;6311133;22;20015;-77
2021/06/02 04:48:37;;;;;;;11.88;5.60;;;18.30;64.60;;;;;;6311082;22;20017;-71
2021/06/02 04:51:38;;;;;;;10.63;4.57;;;18.30;65.00;;;;;;6311616;22;20011;-75
2021/06/02 04:54:16;;;;;;;7.28;3.72;;;18.40;65.00;;;;;;6321279;22;20086;-78
2021/06/02 04:57:15;;;;;;;9.18;3.80;;;18.40;65.30;;;;;;6321291;22;20007;-73
2021/06/02 05:00:00;;;;;;;10.30;3.33;;;18.40;65.20;;;;;;6321071;22;20331;-76
2021/06/02 05:03:13;;;;;;;9.23;3.30;;;18.40;65.50;;;;;;6321006;22;20057;-74
2021/06/02 05:06:05;;;;;;;12.57;3.92;;;18.40;65.30;;;;;;6310494;22;20381;-74
2021/06/02 05:09:04;;;;;;;9.27;2.53;;;18.40;65.30;;;;;;6321997;22;20011;-75
2021/06/02 05:11:47;;;;;;;6.45;2.88;;;18.40;65.30;;;;;;6321578;22;20007;-74
2021/06/02 05:14:28;;;;;;;;;;;18.40;65.30;;;;;;6321297;22;20046;-74
2021/06/02 05:17:30;;;;;;;5.10;2.72;;;18.40;65.20;;;;;;6320990;22;19953;-75
2021/06/02 05:24:11;;;;;;;5.10;2.67;;;18.50;65.30;;;;;;6156316;23;20039;-74
2021/06/02 05:26:52;;;;;;;5.53;2.63;;;18.50;65.20;;;;;;6294825;22;20018;-74
2021/06/02 05:29:26;;;;;;;5.45;2.30;;;18.50;65.20;;;;;;6320975;22;20007;-74
2021/06/02 05:32:23;;;;;;;5.72;2.80;;;18.50;65.30;;;;;;6321103;22;20007;-74
2021/06/02 05:34:54;;;;;;;4.97;2.63;;;18.50;65.30;;;;;;6310949;22;20266;-74
2021/06/02 05:37:51;;;;;;;4.80;2.50;;;18.50;65.30;;;;;;6321008;22;20038;-75
2021/06/02 05:40:50;;;;;;;4.25;2.75;;;18.50;65.30;;;;;;6321618;22;20011;-75
2021/06/02 05:43:54;;;;;;;4.22;2.65;;;18.50;65.30;;;;;;6320840;22;20084;-75
2021/06/02 05:46:34;;;;;;;6.65;2.63;;;18.50;65.20;;;;;;6156776;23;20013;-74
2021/06/02 05:49:30;;;;;;;3.35;2.33;;;18.60;65.30;;;;;;6298117;22;20025;-73
2021/06/02 05:52:32;;;;;;;5.40;3.00;;;18.60;65.30;;;;;;6310581;22;20031;-75
2021/06/02 05:55:09;;;;;;;5.15;2.35;;;18.60;65.10;;;;;;6320696;22;20038;-74
2021/06/02 05:58:04;;;;;;;6.10;2.47;;;18.60;65.00;;;;;;6320313;22;20415;-73
2021/06/02 06:00:51;;;;;;;4.90;2.42;;;18.60;64.90;;;;;;6320663;22;20039;-74
2021/06/02 06:03:41;;;;;;;2.88;1.92;;;18.70;64.90;;;;;;6320665;22;20011;-74
2021/06/02 06:06:15;;;;;;;4.65;2.33;;;18.70;64.80;;;;;;6320389;22;20011;-74
2021/06/02 06:08:59;;;;;;;3.30;2.08;;;18.70;64.70;;;;;;6321698;22;20007;-74
2021/06/02 06:11:55;;;;;;;3.22;2.05;;;18.70;64.60;;;;;;6320244;22;20011;-74
2021/06/02 06:14:55;;;;;;;4.35;2.20;;;18.70;65.20;;;;;;6310532;22;20042;-73
2021/06/02 06:17:49;;;;;;;3.25;2.15;;;18.80;64.70;;;;;;6309996;22;20026;-74
2021/06/02 06:20:53;;;;;;;4.15;2.40;;;18.80;64.60;;;;;;6320602;22;20015;-73
2021/06/02 06:23:28;;;;;;;3.58;2.50;;;18.80;64.60;;;;;;6310004;22;20015;-73
2021/06/02 06:26:20;;;;;;;2.13;1.73;;;18.80;64.60;;;;;;6321156;22;20078;-74
2021/06/02 06:29:09;;;;;;;3.50;2.30;;;18.90;64.60;;;;;;6320465;22;20080;-73
2021/06/02 06:31:38;;;;;;;2.58;1.80;;;18.90;64.50;;;;;;6320676;22;20007;-74
2021/06/02 06:34:27;;;;;;;5.30;2.35;;;18.90;64.60;;;;;;6310279;22;20420;-74
2021/06/02 06:36:55;;;;;;;3.38;2.25;;;18.90;65.10;;;;;;6320355;22;20292;-74
2021/06/02 06:39:32;;;;;;;3.10;2.17;;;19.00;64.60;;;;;;6294023;22;20015;-74
2021/06/02 06:42:00;;;;;;;3.60;2.15;;;19.00;64.50;;;;;;6310886;22;20403;-74
2021/06/02 06:44:29;;;;;;;3.42;1.75;;;19.00;64.50;;;;;;6320394;22;20007;-74
2021/06/02 06:46:56;;;;;;;3.97;2.47;;;19.00;64.60;;;;;;6310970;22;20249;-74
2021/06/02 06:49:24;;;;;;;3.25;1.90;;;19.10;64.50;;;;;;6309887;22;20022;-75
2021/06/02 06:51:54;;;;;;;4.10;2.40;;;19.10;64.50;;;;;;6310957;22;20327;-74
2021/06/02 06:54:22;;;;;;;3.08;2.22;;;19.10;64.50;;;;;;6310079;22;20015;-75
2021/06/02 06:56:48;;;;;;;2.47;2.10;;;19.10;64.50;;;;;;6310304;22;20011;-73
2021/06/02 06:59:16;;;;;;;2.92;2.25;;;19.10;64.40;;;;;;6320464;22;20334;-74
2021/06/02 07:01:42;;;;;;;3.35;2.22;;;19.10;64.30;;;;;;6310282;22;20335;-74
2021/06/02 07:04:09;;;;;;;3.28;2.15;;;19.10;64.50;;;;;;6320907;22;20082;-74
2021/06/02 07:06:39;;;;;;;3.20;2.20;;;19.20;64.50;;;;;;6310343;22;20250;-74
2021/06/02 07:09:06;;;;;;;2.63;2.13;;;19.20;64.30;;;;;;6310829;22;20019;-74
2021/06/02 07:11:36;;;;;;;4.13;2.33;;;19.20;64.40;;;;;;6320125;22;20072;-75
2021/06/02 07:14:03;;;;;;;3.65;2.38;;;19.20;64.30;;;;;;6319811;22;20042;-75
2021/06/02 07:16:30;;;;;;;2.38;1.92;;;19.30;64.30;;;;;;6320401;22;20082;-74
2021/06/02 07:18:57;;;;;;;2.03;1.80;;;19.20;64.30;;;;;;6320061;22;20011;-73
2021/06/02 07:21:24;;;;;;;4.07;2.60;;;19.30;64.40;;;;;;6320255;22;20018;-74
2021/06/02 07:23:50;;;;;;;3.05;1.98;;;19.30;64.30;;;;;;6320026;22;20082;-74
2021/06/02 07:26:16;;;;;;;3.22;1.80;;;19.30;64.20;;;;;;6310646;22;20015;-74
2021/06/02 07:28:45;;;;;;;4.50;2.08;;;19.30;64.20;;;;;;6309971;22;20015;-74
2021/06/02 07:31:11;;;;;;;4.50;2.17;;;19.30;64.20;;;;;;6320526;22;20082;-73
2021/06/02 07:33:37;;;;;;;4.60;2.10;;;19.40;64.30;;;;;;6320122;22;20023;-74
2021/06/02 07:36:05;;;;;;;3.80;1.73;;;19.30;64.10;;;;;;6309976;22;20282;-74
2021/06/02 07:38:31;;;;;;;2.60;1.58;;;19.30;64.20;;;;;;6320047;22;20081;-74
2021/06/02 07:40:57;;;;;;;3.17;2.00;;;19.40;64.20;;;;;;6320661;22;20420;-74
2021/06/02 07:43:23;;;;;;;3.28;1.92;;;19.40;64.20;;;;;;6310240;22;20042;-74
2021/06/02 07:45:49;;;;;;;2.65;2.05;;;19.40;64.00;;;;;;6320036;22;20262;-75
2021/06/02 07:48:15;;;;;;;1.73;1.60;;;19.40;64.00;;;;;;6320699;22;20015;-73
2021/06/02 07:50:40;;;;;;;2.17;1.83;;;19.40;64.00;;;;;;6314920;22;20098;-74
2021/06/02 07:53:06;;;;;;;3.03;1.63;;;19.40;64.00;;;;;;6319998;22;20021;-73
2021/06/02 07:55:33;;;;;;;2.70;1.75;;;19.40;64.10;;;;;;6309656;22;20090;-74
2021/06/02 07:57:59;;;;;;;2.15;1.95;;;19.40;64.10;;;;;;6320320;22;20053;-73
2021/06/02 08:00:25;;;;;;;1.67;1.30;;;19.40;64.00;;;;;;6319535;22;20007;-74
2021/06/02 08:02:50;;;;;;;2.60;1.85;;;19.40;64.00;;;;;;6309817;22;20011;-73
2021/06/02 08:05:16;;;;;;;2.10;1.65;;;19.40;63.90;;;;;;6310076;22;20021;-74
2021/06/02 08:07:44;;;;;;;3.85;1.80;;;19.50;64.00;;;;;;6319673;22;20007;-74
2021/06/02 08:10:11;;;;;;;2.20;2.00;;;19.40;63.90;;;;;;6320509;22;20011;-74
2021/06/02 08:12:37;;;;;;;4.22;1.90;;;19.50;63.90;;;;;;6319866;22;20008;-74
2021/06/02 08:15:05;;;;;;;2.40;1.77;;;19.50;64.00;;;;;;6320517;22;20086;-74
2021/06/02 08:17:31;;;;;;;2.08;1.58;;;19.50;64.00;;;;;;6309949;22;20072;-74
2021/06/02 08:19:57;;;;;;;2.53;1.63;;;19.50;64.10;;;;;;6321404;22;20022;-73
2021/06/02 08:22:23;;;;;;;2.72;1.90;;;19.50;64.10;;;;;;6321656;22;20007;-74
2021/06/02 08:24:49;;;;;;;1.80;1.52;;;19.50;64.10;;;;;;6321920;22;20075;-74
2021/06/02 08:27:14;;;;;;;2.00;1.65;;;19.50;64.10;;;;;;6321275;22;20033;-74
2021/06/02 08:29:41;;;;;;;2.10;1.90;;;19.60;64.20;;;;;;6322356;22;20034;-74
2021/06/02 08:32:07;;;;;;;2.35;1.52;;;19.50;64.20;;;;;;6311445;22;20015;-73
2021/06/02 08:34:33;;;;;;;2.03;1.77;;;19.60;64.20;;;;;;6321637;22;20011;-74
2021/06/02 08:36:59;;;;;;;2.30;1.70;;;19.60;64.30;;;;;;6310614;22;20018;-74
2021/06/02 08:39:25;;;;;;;2.60;1.42;;;19.60;64.30;;;;;;6322102;22;20007;-74
2021/06/02 08:41:51;;;;;;;2.15;1.40;;;19.60;64.30;;;;;;6322273;22;20443;-74
2021/06/02 08:44:19;;;;;;;2.80;1.50;;;19.60;64.30;;;;;;6321464;22;20011;-75
2021/06/02 08:46:47;;;;;;;2.45;1.60;;;19.60;64.30;;;;;;6322179;22;20014;-74
2021/06/02 08:49:15;;;;;;;2.47;1.63;;;19.60;64.30;;;;;;6311148;22;20031;-73
2021/06/02 08:51:41;;;;;;;2.33;1.80;;;19.60;64.30;;;;;;6310916;22;20017;-74
2021/06/02 08:54:07;;;;;;;3.15;1.45;;;19.60;64.30;;;;;;6322138;22;20011;-74
2021/06/02 08:56:38;;;;;;;3.38;1.80;;;19.70;64.30;;;;;;6321679;22;20049;-74
2021/06/02 08:59:04;;;;;;;2.60;2.00;;;19.70;64.30;;;;;;6321927;22;20014;-74
2021/06/02 09:01:30;;;;;;;2.17;1.92;;;19.70;64.30;;;;;;6321433;22;20007;-74
2021/06/02 09:03:58;;;;;;;2.50;1.80;;;19.70;64.30;;;;;;6311423;22;20072;-74
2021/06/02 09:06:25;;;;;;;2.35;1.70;;;19.70;64.50;;;;;;6321974;22;20011;-74
2021/06/02 09:08:54;;;;;;;2.85;2.00;;;19.70;64.20;;;;;;6321312;22;20034;-74
2021/06/02 09:11:19;;;;;;;2.17;1.83;;;19.70;64.20;;;;;;6321311;22;20007;-74
2021/06/02 09:13:46;;;;;;;3.38;1.88;;;19.80;64.30;;;;;;6321616;22;20327;-74
2021/06/02 09:16:32;;;;;;;3.67;1.90;;;19.80;64.20;;;;;;6320971;22;20404;-76
2021/06/02 09:19:03;;;;;;;2.45;1.90;;;19.80;64.20;;;;;;6321237;22;20007;-75
2021/06/02 09:21:31;;;;;;;1.85;1.17;;;19.80;64.20;;;;;;6321095;22;20027;-74
2021/06/02 09:23:58;;;;;;;3.13;1.52;;;19.80;64.20;;;;;;6321829;22;20082;-73
2021/06/02 09:26:27;;;;;;;2.35;1.60;;;19.80;64.20;;;;;;6321093;22;20015;-74
2021/06/02 09:29:10;;;;;;;4.22;2.00;;;19.80;64.20;;;;;;6321614;22;20057;-74
2021/06/02 09:31:37;;;;;;;2.13;1.58;;;19.80;64.20;;;;;;6321613;22;20021;-75
2021/06/02 09:34:13;;;;;;;2.42;1.85;;;19.80;64.20;;;;;;6321167;22;20395;-74
2021/06/02 09:36:39;;;;;;;2.03;1.35;;;19.80;64.20;;;;;;6310389;22;20296;-73
2021/06/02 09:39:10;;;;;;;1.98;1.77;;;19.80;64.20;;;;;;6321011;22;20011;-74
2021/06/02 09:41:47;;;;;;;1.92;1.70;;;19.90;64.20;;;;;;6320963;22;20405;-75
2021/06/02 09:44:20;;;;;;;2.20;2.00;;;19.90;64.10;;;;;;6320589;22;20085;-75
2021/06/02 09:47:07;;;;;;;3.05;1.88;;;19.90;64.10;;;;;;6320760;22;20010;-74
2021/06/02 09:49:59;;;;;;;2.97;1.90;;;19.90;64.00;;;;;;6320867;22;20050;-74
2021/06/02 09:52:46;;;;;;;2.08;1.50;;;19.90;64.00;;;;;;6303798;22;20089;-74
2021/06/02 09:55:23;;;;;;;1.95;1.45;;;19.90;64.00;;;;;;6321158;22;20034;-75
2021/06/02 09:58:00;;;;;;;3.05;1.92;;;19.90;64.00;;;;;;6320984;22;20015;-74
2021/06/02 10:00:28;;;;;;;2.00;1.80;;;19.90;63.90;;;;;;6310259;22;20416;-74
2021/06/02 10:03:03;;;;;;;4.03;1.73;;;19.90;64.00;;;;;;6321602;22;20011;-74
2021/06/02 10:05:35;;;;;;;1.85;1.60;;;19.90;63.90;;;;;;6321293;22;20086;-74
2021/06/02 10:08:01;;;;;;;2.33;2.13;;;19.90;63.90;;;;;;6321019;22;20011;-74
2021/06/02 10:10:27;;;;;;;2.90;1.70;;;19.90;63.90;;;;;;6320287;22;20341;-74
2021/06/02 10:13:00;;;;;;;4.00;2.25;;;20.00;63.90;;;;;;6321297;22;20049;-74
2021/06/02 10:15:37;;;;;;;2.53;1.60;;;19.90;63.80;;;;;;6321184;22;20011;-74
2021/06/02 10:18:04;;;;;;;3.05;2.15;;;19.90;63.80;;;;;;6320533;22;20038;-75
2021/06/02 10:20:31;;;;;;;2.05;1.60;;;20.00;63.90;;;;;;6321258;22;20011;-76
2021/06/02 10:22:59;;;;;;;2.47;1.67;;;20.00;63.80;;;;;;6320317;22;20412;-74
2021/06/02 10:25:28;;;;;;;2.45;1.80;;;20.00;63.90;;;;;;6320495;22;20018;-73
2021/06/02 10:27:56;;;;;;;2.20;1.60;;;20.00;63.70;;;;;;6320701;22;20018;-74
2021/06/02 10:30:25;;;;;;;3.85;2.03;;;20.00;63.80;;;;;;6320479;22;20015;-75
2021/06/02 10:32:52;;;;;;;2.88;1.80;;;20.00;63.70;;;;;;6293580;22;20022;-73
2021/06/02 10:35:19;;;;;;;2.53;1.70;;;20.00;63.70;;;;;;6320361;22;20104;-75
2021/06/02 10:37:45;;;;;;;2.45;1.73;;;20.00;63.70;;;;;;6320676;22;20022;-75
2021/06/02 10:40:21;;;;;;;3.55;2.17;;;20.00;63.80;;;;;;6320732;22;20011;-75
2021/06/02 10:42:54;;;;;;;2.28;1.90;;;20.00;63.50;;;;;;6310099;22;20030;-74
2021/06/02 10:45:42;;;;;;;3.17;1.90;;;20.00;63.50;;;;;;6320962;22;20007;-75
2021/06/02 10:48:08;;;;;;;2.83;1.90;;;20.00;63.50;;;;;;6320498;22;20011;-74
2021/06/02 10:50:36;;;;;;;2.22;1.90;;;20.00;63.50;;;;;;6315682;22;20015;-74
2021/06/02 10:53:18;;;;;;;2.33;1.77;;;20.00;63.50;;;;;;6321372;22;20016;-74
2021/06/02 10:55:45;;;;;;;2.95;1.45;;;20.00;63.40;;;;;;6319714;22;20438;-75
2021/06/02 10:58:25;;;;;;;2.25;2.05;;;20.00;63.50;;;;;;6293420;22;20011;-75
2021/06/02 11:01:06;;;;;;;2.63;2.13;;;20.00;63.30;;;;;;6320291;22;20007;-74
2021/06/02 11:03:33;;;;;;;2.88;2.30;;;20.10;63.20;;;;;;6320225;22;20015;-74
2021/06/02 11:06:14;;;;;;;2.95;2.30;;;20.00;63.20;;;;;;6320559;22;20011;-75
2021/06/02 11:08:52;;;;;;;3.42;2.65;;;20.10;62.80;;;;;;6310808;22;20353;-75
2021/06/02 11:11:41;;;;;;;3.17;2.13;;;20.10;63.00;;;;;;6319880;22;20015;-74
2021/06/02 11:16:50;;;;;;;3.92;2.50;;;20.00;62.90;;;;;;6320303;22;20404;-74
2021/06/02 11:19:18;;;;;;;3.20;1.92;;;20.10;63.10;;;;;;6309607;22;20091;-75
2021/06/02 11:21:56;;;;;;;2.88;2.00;;;20.10;63.20;;;;;;6319748;22;20304;-75
2021/06/02 11:24:32;;;;;;;3.95;2.50;;;20.10;63.00;;;;;;6310400;22;20341;-74
2021/06/02 11:27:17;;;;;;;3.00;2.22;;;20.10;63.10;;;;;;6320443;22;20003;-75
2021/06/02 11:29:51;;;;;;;3.67;2.30;;;20.10;63.10;;;;;;6320635;22;20025;-74
2021/06/02 11:32:24;;;;;;;3.40;2.30;;;20.10;63.20;;;;;;6320786;22;20015;-74
2021/06/02 11:34:54;;;;;;;2.80;2.20;;;20.10;63.20;;;;;;6320140;22;20015;-74
2021/06/02 11:37:26;;;;;;;3.20;2.28;;;20.10;63.30;;;;;;6320691;22;20007;-74
2021/06/02 11:39:56;;;;;;;2.70;2.20;;;20.10;63.40;;;;;;6320425;22;20082;-74
2021/06/02 11:42:46;;;;;;;2.70;2.30;;;20.10;63.40;;;;;;6320393;22;20022;-74
2021/06/02 11:45:14;;;;;;;2.50;2.00;;;20.10;63.20;;;;;;6320171;22;20011;-74
2021/06/02 11:47:45;;;;;;;2.80;2.40;;;20.10;63.40;;;;;;6319902;22;20086;-75
2021/06/02 11:50:14;;;;;;;3.08;2.15;;;20.10;63.40;;;;;;6317408;22;20011;-74
2021/06/02 11:52:45;;;;;;;2.67;2.22;;;20.10;63.40;;;;;;6320386;22;20011;-75
2021/06/02 11:55:15;;;;;;;1.80;1.60;;;20.10;63.40;;;;;;6322663;22;20011;-75
2021/06/02 11:57:43;;;;;;;2.90;1.83;;;20.10;63.50;;;;;;6322428;22;20011;-75
2021/06/02 12:00:13;;;;;;;2.75;2.22;;;20.10;63.50;;;;;;6322256;22;20057;-76
2021/06/02 12:02:39;;;;;;;3.38;1.95;;;20.10;63.40;;;;;;6295299;22;20045;-75
2021/06/02 12:05:17;;;;;;;2.35;2.08;;;20.10;63.50;;;;;;6321900;22;20011;-73
2021/06/02 12:07:54;;;;;;;2.03;1.83;;;20.10;63.40;;;;;;6321824;22;20067;-74
2021/06/02 12:10:25;;;;;;;3.13;2.33;;;20.10;63.40;;;;;;6321283;22;20013;-75
2021/06/02 12:12:52;;;;;;;4.00;1.73;;;20.10;63.40;;;;;;6321780;22;20018;-74
2021/06/02 12:15:19;;;;;;;3.70;2.15;;;20.10;63.40;;;;;;6322537;22;20011;-75
2021/06/02 12:17:45;;;;;;;2.55;1.90;;;20.10;63.40;;;;;;6311561;22;20396;-74
2021/06/02 12:20:14;;;;;;;2.92;2.00;;;20.10;63.40;;;;;;6311387;22;20055;-74
2021/06/02 12:22:40;;;;;;;4.85;2.10;;;20.10;63.40;;;;;;6322232;22;20011;-74
2021/06/02 12:25:24;;;;;;;2.38;1.95;;;20.10;63.50;;;;;;6322050;22;20027;-74
2021/06/02 12:28:01;;;;;;;1.90;1.70;;;20.20;63.50;;;;;;6322457;22;20007;-73
2021/06/02 12:30:36;;;;;;;2.53;1.80;;;20.10;63.60;;;;;;6310900;22;20432;-74
2021/06/02 12:33:04;;;;;;;2.28;1.70;;;20.10;63.60;;;;;;6321305;22;20015;-74
2021/06/02 12:35:40;;;;;;;2.22;2.00;;;20.10;63.50;;;;;;6311792;22;20015;-74
2021/06/02 12:38:18;;;;;;;3.08;1.98;;;20.10;63.50;;;;;;6321506;22;20023;-75
2021/06/02 12:40:49;;;;;;;3.17;2.00;;;20.10;63.50;;;;;;6321204;22;20427;-74
2021/06/02 12:43:20;;;;;;;2.28;1.83;;;20.10;63.50;;;;;;6321517;22;20113;-74
2021/06/02 12:45:48;;;;;;;2.17;1.73;;;20.10;63.50;;;;;;6321533;22;20011;-74
2021/06/02 12:48:30;;;;;;;2.60;1.80;;;20.10;63.50;;;;;;6321395;22;20439;-73
2021/06/02 12:50:56;;;;;;;2.80;2.47;;;20.20;63.50;;;;;;6316125;22;20035;-76
2021/06/02 12:53:22;;;;;;;2.67;2.00;;;20.10;63.60;;;;;;6322167;22;20072;-74
2021/06/02 12:55:50;;;;;;;2.67;2.03;;;20.10;63.60;;;;;;6322343;22;20014;-74
2021/06/02 12:58:18;;;;;;;2.25;2.03;;;20.10;63.60;;;;;;6321317;22;20086;-74
2021/06/02 13:00:49;;;;;;;2.67;2.08;;;20.20;63.50;;;;;;6321306;22;20068;-75
2021/06/02 13:03:18;;;;;;;2.88;1.85;;;20.20;63.60;;;;;;6321378;22;20018;-74
2021/06/02 13:05:46;;;;;;;2.40;2.08;;;20.20;63.60;;;;;;6321286;22;20011;-74
2021/06/02 13:08:12;;;;;;;2.65;2.28;;;20.20;63.50;;;;;;6321234;22;20026;-74
2021/06/02 13:10:40;;;;;;;2.88;1.95;;;20.20;63.40;;;;;;6322069;22;20017;-75
2021/06/02 13:13:08;;;;;;;2.60;2.30;;;20.20;63.50;;;;;;6321471;22;20007;-74
2021/06/02 13:15:39;;;;;;;4.00;2.28;;;20.20;63.50;;;;;;6320988;22;20015;-74
2021/06/02 13:18:06;;;;;;;3.80;2.58;;;20.20;63.30;;;;;;6320757;22;20015;-74
2021/06/02 13:20:38;;;;;;;2.55;2.33;;;20.20;63.00;;;;;;6321787;22;20065;-75
2021/06/02 13:23:12;;;;;;;3.90;2.47;;;20.20;62.70;;;;;;6321333;22;20011;-75
2021/06/02 13:25:39;;;;;;;2.42;2.20;;;20.20;62.80;;;;;;6321500;22;20064;-74
2021/06/02 13:28:07;;;;;;;4.32;2.45;;;20.20;62.90;;;;;;6321168;22;20011;-74
2021/06/02 13:30:44;;;;;;;3.05;1.95;;;20.20;63.00;;;;;;6321052;22;20023;-74
2021/06/02 13:33:12;;;;;;;3.55;2.40;;;20.20;63.00;;;;;;6321075;22;20088;-74
2021/06/02 13:35:39;;;;;;;4.95;2.30;;;20.20;63.20;;;;;;6311458;22;20057;-75
2021/06/02 13:38:04;;;;;;;3.83;2.45;;;20.20;63.00;;;;;;6321949;22;20015;-74